sensor_id;sensor_type;location;lat;lon;timestamp;P1;durP1;ratioP1;P2;durP2;ratioP2
27113;SDS011;14648;49.730;8.614;2023-05-07T00:02:06;1.60;;;1.50;;
27113;SDS011;14648;49.730;8.614;2023-05-07T00:04:32;3.50;;;1.70;;
27113;SDS011;14648;49.730;8.614;2023-05-07T00:07:01;4.20;;;1.80;;
27113;SDS011;14648;49.730;8.614;2023-05-07T00:09:30;2.20;;;1.33;;
27113;SDS011;14648;49.730;8.614;2023-05-07T00:11:56;2.17;;;1.50;;
27113;SDS011;14648;49.730;8.614;2023-05-07T00:14:22;1.80;;;1.70;;
27113;SDS011;14648;49.730;8.614;2023-05-07T00:16:47;3.83;;;1.73;;
27113;SDS011;14648;49.730;8.614;2023-05-07T00:19:13;1.83;;;1.73;;
27113;SDS011;14648;49.730;8.614;2023-05-07T00:21:39;3.00;;;1.80;;
27113;SDS011;14648;49.730;8.614;2023-05-07T00:24:04;4.50;;;2.00;;
27113;SDS011;14648;49.730;8.614;2023-05-07T00:26:30;3.37;;;1.63;;
27113;SDS011;14648;49.730;8.614;2023-05-07T00:28:56;3.93;;;2.10;;
27113;SDS011;14648;49.730;8.614;2023-05-07T00:31:21;1.53;;;1.43;;
27113;SDS011;14648;49.730;8.614;2023-05-07T00:33:47;1.60;;;1.50;;
27113;SDS011;14648;49.730;8.614;2023-05-07T00:36:13;4.73;;;1.73;;
27113;SDS011;14648;49.730;8.614;2023-05-07T00:38:38;2.03;;;1.70;;
27113;SDS011;14648;49.730;8.614;2023-05-07T00:41:04;5.97;;;1.83;;
27113;SDS011;14648;49.730;8.614;2023-05-07T00:43:30;1.63;;;1.53;;
27113;SDS011;14648;49.730;8.614;2023-05-07T00:45:56;1.67;;;1.30;;
27113;SDS011;14648;49.730;8.614;2023-05-07T00:48:22;1.50;;;1.40;;
27113;SDS011;14648;49.730;8.614;2023-05-07T00:50:49;2.00;;;1.77;;
27113;SDS011;14648;49.730;8.614;2023-05-07T00:53:15;2.80;;;1.60;;
27113;SDS011;14648;49.730;8.614;2023-05-07T00:55:41;3.20;;;1.50;;
27113;SDS011;14648;49.730;8.614;2023-05-07T00:58:07;7.30;;;1.90;;
27113;SDS011;14648;49.730;8.614;2023-05-07T01:00:33;5.00;;;1.73;;
27113;SDS011;14648;49.730;8.614;2023-05-07T01:02:59;2.23;;;2.03;;
27113;SDS011;14648;49.730;8.614;2023-05-07T01:05:24;3.00;;;1.70;;
27113;SDS011;14648;49.730;8.614;2023-05-07T01:07:52;1.87;;;1.50;;
27113;SDS011;14648;49.730;8.614;2023-05-07T01:10:19;1.73;;;1.40;;
27113;SDS011;14648;49.730;8.614;2023-05-07T01:12:46;1.83;;;1.73;;
27113;SDS011;14648;49.730;8.614;2023-05-07T01:15:13;1.60;;;1.40;;
27113;SDS011;14648;49.730;8.614;2023-05-07T01:17:40;2.90;;;1.77;;
27113;SDS011;14648;49.730;8.614;2023-05-07T01:20:07;3.37;;;1.50;;
27113;SDS011;14648;49.730;8.614;2023-05-07T01:22:37;4.70;;;2.57;;
27113;SDS011;14648;49.730;8.614;2023-05-07T01:25:04;4.80;;;1.70;;
27113;SDS011;14648;49.730;8.614;2023-05-07T01:27:32;3.53;;;2.10;;
27113;SDS011;14648;49.730;8.614;2023-05-07T01:29:58;5.00;;;2.27;;
27113;SDS011;14648;49.730;8.614;2023-05-07T01:32:29;3.00;;;2.23;;
27113;SDS011;14648;49.730;8.614;2023-05-07T01:35:20;3.30;;;1.83;;
27113;SDS011;14648;49.730;8.614;2023-05-07T01:37:52;4.40;;;2.33;;
27113;SDS011;14648;49.730;8.614;2023-05-07T01:40:19;1.83;;;1.73;;
27113;SDS011;14648;49.730;8.614;2023-05-07T01:42:45;3.63;;;2.00;;
27113;SDS011;14648;49.730;8.614;2023-05-07T01:45:13;1.97;;;1.87;;
27113;SDS011;14648;49.730;8.614;2023-05-07T01:47:39;1.93;;;1.83;;
27113;SDS011;14648;49.730;8.614;2023-05-07T01:50:05;3.73;;;1.90;;
27113;SDS011;14648;49.730;8.614;2023-05-07T01:52:33;2.50;;;1.73;;
27113;SDS011;14648;49.730;8.614;2023-05-07T01:54:59;5.43;;;2.40;;
27113;SDS011;14648;49.730;8.614;2023-05-07T01:57:25;2.30;;;1.40;;
27113;SDS011;14648;49.730;8.614;2023-05-07T01:59:50;1.93;;;1.70;;
27113;SDS011;14648;49.730;8.614;2023-05-07T02:02:16;1.67;;;1.57;;
27113;SDS011;14648;49.730;8.614;2023-05-07T02:04:42;4.33;;;1.50;;
27113;SDS011;14648;49.730;8.614;2023-05-07T02:07:07;1.77;;;1.63;;
27113;SDS011;14648;49.730;8.614;2023-05-07T02:09:33;2.63;;;1.87;;
27113;SDS011;14648;49.730;8.614;2023-05-07T02:11:58;2.13;;;1.93;;
27113;SDS011;14648;49.730;8.614;2023-05-07T02:14:24;1.80;;;1.70;;
27113;SDS011;14648;49.730;8.614;2023-05-07T02:16:51;1.57;;;1.20;;
27113;SDS011;14648;49.730;8.614;2023-05-07T02:19:16;1.70;;;1.60;;
27113;SDS011;14648;49.730;8.614;2023-05-07T02:21:43;2.10;;;1.33;;
27113;SDS011;14648;49.730;8.614;2023-05-07T02:24:08;1.60;;;1.50;;
27113;SDS011;14648;49.730;8.614;2023-05-07T02:26:34;1.30;;;1.20;;
27113;SDS011;14648;49.730;8.614;2023-05-07T02:29:00;4.50;;;2.10;;
27113;SDS011;14648;49.730;8.614;2023-05-07T02:31:26;1.80;;;1.70;;
27113;SDS011;14648;49.730;8.614;2023-05-07T02:33:51;37.17;;;1.93;;
27113;SDS011;14648;49.730;8.614;2023-05-07T02:36:17;1.87;;;1.77;;
27113;SDS011;14648;49.730;8.614;2023-05-07T02:38:42;2.60;;;1.77;;
27113;SDS011;14648;49.730;8.614;2023-05-07T02:41:08;1.93;;;1.80;;
27113;SDS011;14648;49.730;8.614;2023-05-07T02:43:34;3.00;;;1.87;;
27113;SDS011;14648;49.730;8.614;2023-05-07T02:46:00;1.67;;;1.57;;
27113;SDS011;14648;49.730;8.614;2023-05-07T02:48:30;1.80;;;1.70;;
27113;SDS011;14648;49.730;8.614;2023-05-07T02:50:56;2.40;;;1.77;;
27113;SDS011;14648;49.730;8.614;2023-05-07T02:53:22;2.80;;;2.60;;
27113;SDS011;14648;49.730;8.614;2023-05-07T02:55:51;5.93;;;2.03;;
27113;SDS011;14648;49.730;8.614;2023-05-07T02:58:21;2.00;;;1.80;;
27113;SDS011;14648;49.730;8.614;2023-05-07T03:00:47;1.83;;;1.73;;
27113;SDS011;14648;49.730;8.614;2023-05-07T03:03:13;7.03;;;2.43;;
27113;SDS011;14648;49.730;8.614;2023-05-07T03:05:39;2.60;;;2.20;;
27113;SDS011;14648;49.730;8.614;2023-05-07T03:08:05;2.37;;;2.17;;
27113;SDS011;14648;49.730;8.614;2023-05-07T03:10:31;7.33;;;2.73;;
27113;SDS011;14648;49.730;8.614;2023-05-07T03:12:57;2.63;;;2.43;;
27113;SDS011;14648;49.730;8.614;2023-05-07T03:15:23;2.60;;;1.90;;
27113;SDS011;14648;49.730;8.614;2023-05-07T03:17:48;2.03;;;1.83;;
27113;SDS011;14648;49.730;8.614;2023-05-07T03:20:14;2.00;;;1.80;;
27113;SDS011;14648;49.730;8.614;2023-05-07T03:22:40;2.83;;;1.90;;
27113;SDS011;14648;49.730;8.614;2023-05-07T03:25:06;4.17;;;2.30;;
27113;SDS011;14648;49.730;8.614;2023-05-07T03:27:33;2.20;;;2.10;;
27113;SDS011;14648;49.730;8.614;2023-05-07T03:29:58;2.13;;;1.97;;
27113;SDS011;14648;49.730;8.614;2023-05-07T03:32:25;3.00;;;2.70;;
27113;SDS011;14648;49.730;8.614;2023-05-07T03:34:50;2.60;;;2.37;;
27113;SDS011;14648;49.730;8.614;2023-05-07T03:37:16;2.40;;;1.80;;
27113;SDS011;14648;49.730;8.614;2023-05-07T03:39:42;2.00;;;1.90;;
27113;SDS011;14648;49.730;8.614;2023-05-07T03:42:07;3.60;;;2.20;;
27113;SDS011;14648;49.730;8.614;2023-05-07T03:44:33;2.70;;;1.73;;
27113;SDS011;14648;49.730;8.614;2023-05-07T03:47:02;3.13;;;1.93;;
27113;SDS011;14648;49.730;8.614;2023-05-07T03:49:28;2.33;;;2.13;;
27113;SDS011;14648;49.730;8.614;2023-05-07T03:51:54;2.37;;;2.00;;
27113;SDS011;14648;49.730;8.614;2023-05-07T03:54:20;6.30;;;1.70;;
27113;SDS011;14648;49.730;8.614;2023-05-07T03:56:49;2.80;;;2.30;;
27113;SDS011;14648;49.730;8.614;2023-05-07T03:59:15;1.83;;;1.73;;
27113;SDS011;14648;49.730;8.614;2023-05-07T04:01:40;2.40;;;2.03;;
27113;SDS011;14648;49.730;8.614;2023-05-07T04:04:06;2.10;;;1.77;;
27113;SDS011;14648;49.730;8.614;2023-05-07T04:06:32;2.43;;;1.40;;
27113;SDS011;14648;49.730;8.614;2023-05-07T04:08:57;1.60;;;1.50;;
27113;SDS011;14648;49.730;8.614;2023-05-07T04:11:23;1.93;;;1.80;;
27113;SDS011;14648;49.730;8.614;2023-05-07T04:13:50;2.17;;;1.87;;
27113;SDS011;14648;49.730;8.614;2023-05-07T04:16:15;1.40;;;1.30;;
27113;SDS011;14648;49.730;8.614;2023-05-07T04:18:41;1.70;;;1.60;;
27113;SDS011;14648;49.730;8.614;2023-05-07T04:21:14;1.90;;;1.80;;
27113;SDS011;14648;49.730;8.614;2023-05-07T04:24:13;1.60;;;1.50;;
27113;SDS011;14648;49.730;8.614;2023-05-07T04:26:45;1.87;;;1.77;;
27113;SDS011;14648;49.730;8.614;2023-05-07T04:29:11;2.27;;;2.07;;
27113;SDS011;14648;49.730;8.614;2023-05-07T04:31:37;2.30;;;2.13;;
27113;SDS011;14648;49.730;8.614;2023-05-07T04:34:02;2.33;;;2.23;;
27113;SDS011;14648;49.730;8.614;2023-05-07T04:36:28;2.97;;;2.77;;
27113;SDS011;14648;49.730;8.614;2023-05-07T04:38:54;3.63;;;2.30;;
27113;SDS011;14648;49.730;8.614;2023-05-07T04:41:20;5.00;;;2.33;;
27113;SDS011;14648;49.730;8.614;2023-05-07T04:43:45;3.00;;;2.70;;
27113;SDS011;14648;49.730;8.614;2023-05-07T04:46:11;3.07;;;2.87;;
27113;SDS011;14648;49.730;8.614;2023-05-07T04:48:37;5.57;;;2.83;;
27113;SDS011;14648;49.730;8.614;2023-05-07T04:51:02;2.60;;;2.40;;
27113;SDS011;14648;49.730;8.614;2023-05-07T04:53:28;3.23;;;2.93;;
27113;SDS011;14648;49.730;8.614;2023-05-07T04:55:54;4.33;;;2.70;;
27113;SDS011;14648;49.730;8.614;2023-05-07T04:58:22;2.40;;;2.20;;
27113;SDS011;14648;49.730;8.614;2023-05-07T05:00:48;2.83;;;2.67;;
27113;SDS011;14648;49.730;8.614;2023-05-07T05:03:14;4.10;;;2.57;;
27113;SDS011;14648;49.730;8.614;2023-05-07T05:05:41;3.07;;;2.80;;
27113;SDS011;14648;49.730;8.614;2023-05-07T05:08:07;7.23;;;3.23;;
27113;SDS011;14648;49.730;8.614;2023-05-07T05:10:32;4.07;;;3.13;;
27113;SDS011;14648;49.730;8.614;2023-05-07T05:12:58;2.67;;;2.47;;
27113;SDS011;14648;49.730;8.614;2023-05-07T05:15:24;2.87;;;2.70;;
27113;SDS011;14648;49.730;8.614;2023-05-07T05:17:49;3.30;;;2.87;;
27113;SDS011;14648;49.730;8.614;2023-05-07T05:20:15;2.70;;;2.50;;
27113;SDS011;14648;49.730;8.614;2023-05-07T05:22:41;4.30;;;2.73;;
27113;SDS011;14648;49.730;8.614;2023-05-07T05:25:07;2.93;;;2.63;;
27113;SDS011;14648;49.730;8.614;2023-05-07T05:27:34;4.57;;;2.93;;
27113;SDS011;14648;49.730;8.614;2023-05-07T05:30:00;4.23;;;3.13;;
27113;SDS011;14648;49.730;8.614;2023-05-07T05:32:26;4.43;;;2.60;;
27113;SDS011;14648;49.730;8.614;2023-05-07T05:34:52;2.40;;;2.27;;
27113;SDS011;14648;49.730;8.614;2023-05-07T05:37:18;2.57;;;2.37;;
27113;SDS011;14648;49.730;8.614;2023-05-07T05:39:43;2.97;;;2.67;;
27113;SDS011;14648;49.730;8.614;2023-05-07T05:42:09;4.60;;;3.37;;
27113;SDS011;14648;49.730;8.614;2023-05-07T05:44:35;3.63;;;2.60;;
27113;SDS011;14648;49.730;8.614;2023-05-07T05:47:00;3.10;;;2.57;;
27113;SDS011;14648;49.730;8.614;2023-05-07T05:49:26;2.63;;;2.43;;
27113;SDS011;14648;49.730;8.614;2023-05-07T05:51:52;4.73;;;3.33;;
27113;SDS011;14648;49.730;8.614;2023-05-07T05:54:17;3.10;;;2.57;;
27113;SDS011;14648;49.730;8.614;2023-05-07T05:56:43;2.50;;;2.27;;
27113;SDS011;14648;49.730;8.614;2023-05-07T05:59:09;3.10;;;2.90;;
27113;SDS011;14648;49.730;8.614;2023-05-07T06:01:35;8.63;;;3.40;;
27113;SDS011;14648;49.730;8.614;2023-05-07T06:04:00;3.43;;;2.70;;
27113;SDS011;14648;49.730;8.614;2023-05-07T06:06:26;4.90;;;3.70;;
27113;SDS011;14648;49.730;8.614;2023-05-07T06:08:52;6.00;;;2.50;;
27113;SDS011;14648;49.730;8.614;2023-05-07T06:11:18;2.77;;;2.60;;
27113;SDS011;14648;49.730;8.614;2023-05-07T06:13:46;4.87;;;3.07;;
27113;SDS011;14648;49.730;8.614;2023-05-07T06:16:12;2.90;;;2.70;;
27113;SDS011;14648;49.730;8.614;2023-05-07T06:18:37;6.07;;;3.07;;
27113;SDS011;14648;49.730;8.614;2023-05-07T06:21:03;3.33;;;3.03;;
27113;SDS011;14648;49.730;8.614;2023-05-07T06:23:29;2.60;;;2.40;;
27113;SDS011;14648;49.730;8.614;2023-05-07T06:25:55;2.43;;;2.27;;
27113;SDS011;14648;49.730;8.614;2023-05-07T06:28:21;5.17;;;3.87;;
27113;SDS011;14648;49.730;8.614;2023-05-07T06:30:47;2.83;;;2.50;;
27113;SDS011;14648;49.730;8.614;2023-05-07T06:33:15;4.07;;;2.90;;
27113;SDS011;14648;49.730;8.614;2023-05-07T06:35:41;3.63;;;2.80;;
27113;SDS011;14648;49.730;8.614;2023-05-07T06:38:07;2.77;;;2.50;;
27113;SDS011;14648;49.730;8.614;2023-05-07T06:40:32;2.70;;;2.50;;
27113;SDS011;14648;49.730;8.614;2023-05-07T06:42:58;3.73;;;3.10;;
27113;SDS011;14648;49.730;8.614;2023-05-07T06:45:24;3.47;;;3.17;;
27113;SDS011;14648;49.730;8.614;2023-05-07T06:47:52;2.70;;;2.50;;
27113;SDS011;14648;49.730;8.614;2023-05-07T06:50:18;3.73;;;3.43;;
27113;SDS011;14648;49.730;8.614;2023-05-07T06:52:44;3.53;;;2.50;;
27113;SDS011;14648;49.730;8.614;2023-05-07T06:55:09;6.93;;;3.60;;
27113;SDS011;14648;49.730;8.614;2023-05-07T06:57:36;3.30;;;3.00;;
27113;SDS011;14648;49.730;8.614;2023-05-07T07:00:03;5.73;;;2.70;;
27113;SDS011;14648;49.730;8.614;2023-05-07T07:02:32;3.23;;;3.03;;
27113;SDS011;14648;49.730;8.614;2023-05-07T07:04:57;2.60;;;2.40;;
27113;SDS011;14648;49.730;8.614;2023-05-07T07:07:23;3.87;;;2.83;;
27113;SDS011;14648;49.730;8.614;2023-05-07T07:09:49;2.53;;;2.33;;
27113;SDS011;14648;49.730;8.614;2023-05-07T07:12:16;2.80;;;2.70;;
27113;SDS011;14648;49.730;8.614;2023-05-07T07:14:41;3.37;;;2.40;;
27113;SDS011;14648;49.730;8.614;2023-05-07T07:17:07;3.73;;;2.80;;
27113;SDS011;14648;49.730;8.614;2023-05-07T07:19:33;2.63;;;2.17;;
27113;SDS011;14648;49.730;8.614;2023-05-07T07:21:59;4.03;;;2.10;;
27113;SDS011;14648;49.730;8.614;2023-05-07T07:24:24;2.77;;;2.40;;
27113;SDS011;14648;49.730;8.614;2023-05-07T07:26:50;2.37;;;2.27;;
27113;SDS011;14648;49.730;8.614;2023-05-07T07:29:16;2.80;;;2.60;;
27113;SDS011;14648;49.730;8.614;2023-05-07T07:31:43;2.90;;;2.30;;
27113;SDS011;14648;49.730;8.614;2023-05-07T07:34:09;2.33;;;2.23;;
27113;SDS011;14648;49.730;8.614;2023-05-07T07:36:34;2.60;;;2.40;;
27113;SDS011;14648;49.730;8.614;2023-05-07T07:39:00;2.47;;;2.27;;
27113;SDS011;14648;49.730;8.614;2023-05-07T07:41:26;3.37;;;2.40;;
27113;SDS011;14648;49.730;8.614;2023-05-07T07:43:51;3.37;;;2.20;;
27113;SDS011;14648;49.730;8.614;2023-05-07T07:46:17;8.00;;;2.60;;
27113;SDS011;14648;49.730;8.614;2023-05-07T07:48:42;5.13;;;2.30;;
27113;SDS011;14648;49.730;8.614;2023-05-07T07:51:08;4.00;;;2.10;;
27113;SDS011;14648;49.730;8.614;2023-05-07T07:53:34;5.93;;;2.27;;
27113;SDS011;14648;49.730;8.614;2023-05-07T07:55:59;2.60;;;2.40;;
27113;SDS011;14648;49.730;8.614;2023-05-07T07:58:27;5.53;;;2.73;;
27113;SDS011;14648;49.730;8.614;2023-05-07T08:00:55;2.70;;;2.50;;
27113;SDS011;14648;49.730;8.614;2023-05-07T08:03:21;6.03;;;1.90;;
27113;SDS011;14648;49.730;8.614;2023-05-07T08:05:47;2.40;;;2.10;;
27113;SDS011;14648;49.730;8.614;2023-05-07T08:08:15;3.17;;;2.47;;
27113;SDS011;14648;49.730;8.614;2023-05-07T08:10:40;13.33;;;2.07;;
27113;SDS011;14648;49.730;8.614;2023-05-07T08:13:06;1.97;;;1.87;;
27113;SDS011;14648;49.730;8.614;2023-05-07T08:15:32;3.50;;;2.17;;
27113;SDS011;14648;49.730;8.614;2023-05-07T08:17:58;2.03;;;1.93;;
27113;SDS011;14648;49.730;8.614;2023-05-07T08:20:25;2.70;;;2.50;;
27113;SDS011;14648;49.730;8.614;2023-05-07T08:22:51;5.93;;;2.43;;
27113;SDS011;14648;49.730;8.614;2023-05-07T08:25:17;1.80;;;1.70;;
27113;SDS011;14648;49.730;8.614;2023-05-07T08:27:42;2.13;;;1.97;;
27113;SDS011;14648;49.730;8.614;2023-05-07T08:30:10;3.00;;;2.07;;
27113;SDS011;14648;49.730;8.614;2023-05-07T08:32:36;3.53;;;2.60;;
27113;SDS011;14648;49.730;8.614;2023-05-07T08:35:02;2.40;;;1.83;;
27113;SDS011;14648;49.730;8.614;2023-05-07T08:37:28;2.30;;;1.97;;
27113;SDS011;14648;49.730;8.614;2023-05-07T08:39:54;2.03;;;1.83;;
27113;SDS011;14648;49.730;8.614;2023-05-07T08:42:19;2.73;;;2.53;;
27113;SDS011;14648;49.730;8.614;2023-05-07T08:44:48;2.13;;;1.80;;
27113;SDS011;14648;49.730;8.614;2023-05-07T08:47:18;1.93;;;1.80;;
27113;SDS011;14648;49.730;8.614;2023-05-07T08:49:47;3.43;;;2.23;;
27113;SDS011;14648;49.730;8.614;2023-05-07T08:52:14;2.03;;;1.93;;
27113;SDS011;14648;49.730;8.614;2023-05-07T08:54:40;2.80;;;2.00;;
27113;SDS011;14648;49.730;8.614;2023-05-07T08:57:06;1.97;;;1.70;;
27113;SDS011;14648;49.730;8.614;2023-05-07T08:59:32;1.90;;;1.80;;
27113;SDS011;14648;49.730;8.614;2023-05-07T09:01:57;2.50;;;2.03;;
27113;SDS011;14648;49.730;8.614;2023-05-07T09:04:23;3.80;;;1.97;;
27113;SDS011;14648;49.730;8.614;2023-05-07T09:06:49;2.90;;;1.60;;
27113;SDS011;14648;49.730;8.614;2023-05-07T09:09:16;1.47;;;1.37;;
27113;SDS011;14648;49.730;8.614;2023-05-07T09:11:43;4.40;;;1.97;;
27113;SDS011;14648;49.730;8.614;2023-05-07T09:14:09;2.07;;;1.87;;
27113;SDS011;14648;49.730;8.614;2023-05-07T09:16:35;2.13;;;1.57;;
27113;SDS011;14648;49.730;8.614;2023-05-07T09:19:00;1.97;;;1.87;;
27113;SDS011;14648;49.730;8.614;2023-05-07T09:21:26;2.00;;;1.90;;
27113;SDS011;14648;49.730;8.614;2023-05-07T09:23:52;4.30;;;2.23;;
27113;SDS011;14648;49.730;8.614;2023-05-07T09:26:24;6.03;;;1.80;;
27113;SDS011;14648;49.730;8.614;2023-05-07T09:28:50;2.93;;;1.80;;
27113;SDS011;14648;49.730;8.614;2023-05-07T09:31:19;1.50;;;1.40;;
27113;SDS011;14648;49.730;8.614;2023-05-07T09:33:45;2.60;;;1.57;;
27113;SDS011;14648;49.730;8.614;2023-05-07T09:36:11;3.27;;;1.90;;
27113;SDS011;14648;49.730;8.614;2023-05-07T09:38:37;1.60;;;1.50;;
27113;SDS011;14648;49.730;8.614;2023-05-07T09:41:04;1.97;;;1.77;;
27113;SDS011;14648;49.730;8.614;2023-05-07T09:43:35;1.83;;;1.20;;
27113;SDS011;14648;49.730;8.614;2023-05-07T09:46:06;2.77;;;1.63;;
27113;SDS011;14648;49.730;8.614;2023-05-07T09:48:43;1.73;;;1.63;;
27113;SDS011;14648;49.730;8.614;2023-05-07T09:51:18;1.57;;;1.47;;
27113;SDS011;14648;49.730;8.614;2023-05-07T09:53:57;1.80;;;1.70;;
27113;SDS011;14648;49.730;8.614;2023-05-07T09:56:25;1.90;;;1.80;;
27113;SDS011;14648;49.730;8.614;2023-05-07T09:58:52;2.07;;;1.87;;
27113;SDS011;14648;49.730;8.614;2023-05-07T10:01:19;1.80;;;1.63;;
27113;SDS011;14648;49.730;8.614;2023-05-07T10:03:47;2.03;;;1.90;;
27113;SDS011;14648;49.730;8.614;2023-05-07T10:06:16;4.20;;;2.13;;
27113;SDS011;14648;49.730;8.614;2023-05-07T10:08:43;5.80;;;2.43;;
27113;SDS011;14648;49.730;8.614;2023-05-07T10:11:10;1.87;;;1.70;;
27113;SDS011;14648;49.730;8.614;2023-05-07T10:13:36;3.00;;;2.00;;
27113;SDS011;14648;49.730;8.614;2023-05-07T10:16:06;2.20;;;1.90;;
27113;SDS011;14648;49.730;8.614;2023-05-07T10:18:32;2.57;;;1.60;;
27113;SDS011;14648;49.730;8.614;2023-05-07T10:21:02;2.30;;;2.20;;
27113;SDS011;14648;49.730;8.614;2023-05-07T10:23:50;1.90;;;1.50;;
27113;SDS011;14648;49.730;8.614;2023-05-07T10:26:20;2.03;;;1.83;;
27113;SDS011;14648;49.730;8.614;2023-05-07T10:28:49;4.13;;;1.70;;
27113;SDS011;14648;49.730;8.614;2023-05-07T10:34:39;2.23;;;2.10;;
27113;SDS011;14648;49.730;8.614;2023-05-07T10:37:09;2.05;;;1.70;;
27113;SDS011;14648;49.730;8.614;2023-05-07T10:39:35;2.97;;;1.93;;
27113;SDS011;14648;49.730;8.614;2023-05-07T10:42:08;1.50;;;1.40;;
27113;SDS011;14648;49.730;8.614;2023-05-07T10:44:36;2.53;;;1.90;;
27113;SDS011;14648;49.730;8.614;2023-05-07T10:47:12;3.10;;;2.23;;
27113;SDS011;14648;49.730;8.614;2023-05-07T10:52:22;1.90;;;1.80;;
27113;SDS011;14648;49.730;8.614;2023-05-07T10:57:50;1.63;;;1.53;;
27113;SDS011;14648;49.730;8.614;2023-05-07T11:05:26;2.67;;;2.10;;
27113;SDS011;14648;49.730;8.614;2023-05-07T11:07:57;1.70;;;1.60;;
27113;SDS011;14648;49.730;8.614;2023-05-07T11:16:17;1.87;;;1.70;;
27113;SDS011;14648;49.730;8.614;2023-05-07T11:18:53;1.60;;;1.50;;
27113;SDS011;14648;49.730;8.614;2023-05-07T11:21:33;1.77;;;1.67;;
27113;SDS011;14648;49.730;8.614;2023-05-07T11:24:04;2.10;;;2.00;;
27113;SDS011;14648;49.730;8.614;2023-05-07T11:26:44;1.60;;;1.50;;
27113;SDS011;14648;49.730;8.614;2023-05-07T11:29:18;2.75;;;2.10;;
27113;SDS011;14648;49.730;8.614;2023-05-07T11:31:50;1.98;;;1.83;;
27113;SDS011;14648;49.730;8.614;2023-05-07T11:34:21;1.92;;;1.83;;
27113;SDS011;14648;49.730;8.614;2023-05-07T11:36:49;2.33;;;2.13;;
27113;SDS011;14648;49.730;8.614;2023-05-07T11:39:31;3.92;;;2.20;;
27113;SDS011;14648;49.730;8.614;2023-05-07T11:42:01;2.15;;;2.05;;
27113;SDS011;14648;49.730;8.614;2023-05-07T11:44:40;2.05;;;1.95;;
27113;SDS011;14648;49.730;8.614;2023-05-07T11:47:06;3.40;;;1.88;;
27113;SDS011;14648;49.730;8.614;2023-05-07T11:49:32;1.88;;;1.77;;
27113;SDS011;14648;49.730;8.614;2023-05-07T11:51:59;4.20;;;2.50;;
27113;SDS011;14648;49.730;8.614;2023-05-07T11:54:25;1.98;;;1.88;;
27113;SDS011;14648;49.730;8.614;2023-05-07T11:56:51;4.53;;;2.00;;
27113;SDS011;14648;49.730;8.614;2023-05-07T11:59:17;2.15;;;2.05;;
27113;SDS011;14648;49.730;8.614;2023-05-07T12:01:45;2.08;;;1.98;;
27113;SDS011;14648;49.730;8.614;2023-05-07T12:04:12;2.00;;;1.90;;
27113;SDS011;14648;49.730;8.614;2023-05-07T12:06:37;1.90;;;1.80;;
27113;SDS011;14648;49.730;8.614;2023-05-07T12:09:04;1.92;;;1.83;;
27113;SDS011;14648;49.730;8.614;2023-05-07T12:11:32;2.33;;;2.20;;
27113;SDS011;14648;49.730;8.614;2023-05-07T12:13:57;2.15;;;2.05;;
27113;SDS011;14648;49.730;8.614;2023-05-07T12:16:23;1.88;;;1.77;;
27113;SDS011;14648;49.730;8.614;2023-05-07T12:18:50;2.83;;;2.10;;
27113;SDS011;14648;49.730;8.614;2023-05-07T12:21:17;2.00;;;1.90;;
27113;SDS011;14648;49.730;8.614;2023-05-07T12:23:43;2.03;;;1.92;;
27113;SDS011;14648;49.730;8.614;2023-05-07T12:26:10;1.95;;;1.80;;
27113;SDS011;14648;49.730;8.614;2023-05-07T12:28:36;1.70;;;1.60;;
27113;SDS011;14648;49.730;8.614;2023-05-07T12:31:06;2.05;;;1.92;;
27113;SDS011;14648;49.730;8.614;2023-05-07T12:33:32;3.03;;;2.05;;
27113;SDS011;14648;49.730;8.614;2023-05-07T12:36:02;2.00;;;1.90;;
27113;SDS011;14648;49.730;8.614;2023-05-07T12:38:34;1.80;;;1.70;;
27113;SDS011;14648;49.730;8.614;2023-05-07T12:41:01;1.48;;;1.48;;
27113;SDS011;14648;49.730;8.614;2023-05-07T12:43:28;2.40;;;1.45;;
27113;SDS011;14648;49.730;8.614;2023-05-07T12:45:55;1.90;;;1.80;;
27113;SDS011;14648;49.730;8.614;2023-05-07T12:48:23;1.92;;;1.83;;
27113;SDS011;14648;49.730;8.614;2023-05-07T12:50:52;1.60;;;1.50;;
27113;SDS011;14648;49.730;8.614;2023-05-07T12:53:20;1.80;;;1.70;;
27113;SDS011;14648;49.730;8.614;2023-05-07T12:55:48;1.92;;;1.83;;
27113;SDS011;14648;49.730;8.614;2023-05-07T12:58:17;2.20;;;1.85;;
27113;SDS011;14648;49.730;8.614;2023-05-07T13:01:04;1.73;;;1.63;;
27113;SDS011;14648;49.730;8.614;2023-05-07T13:03:36;2.88;;;1.73;;
27113;SDS011;14648;49.730;8.614;2023-05-07T13:06:04;2.33;;;2.22;;
27113;SDS011;14648;49.730;8.614;2023-05-07T13:08:39;1.90;;;1.80;;
27113;SDS011;14648;49.730;8.614;2023-05-07T13:11:08;1.60;;;1.50;;
27113;SDS011;14648;49.730;8.614;2023-05-07T13:13:36;3.55;;;2.15;;
27113;SDS011;14648;49.730;8.614;2023-05-07T13:16:05;2.33;;;1.88;;
27113;SDS011;14648;49.730;8.614;2023-05-07T13:18:33;1.92;;;1.83;;
27113;SDS011;14648;49.730;8.614;2023-05-07T13:21:00;2.20;;;1.98;;
27113;SDS011;14648;49.730;8.614;2023-05-07T13:23:27;1.70;;;1.60;;
27113;SDS011;14648;49.730;8.614;2023-05-07T13:25:53;2.05;;;1.95;;
27113;SDS011;14648;49.730;8.614;2023-05-07T13:28:20;3.47;;;2.30;;
27113;SDS011;14648;49.730;8.614;2023-05-07T13:30:47;1.98;;;1.88;;
27113;SDS011;14648;49.730;8.614;2023-05-07T13:33:13;2.08;;;1.98;;
27113;SDS011;14648;49.730;8.614;2023-05-07T13:35:40;2.65;;;2.35;;
27113;SDS011;14648;49.730;8.614;2023-05-07T13:38:06;2.38;;;2.17;;
27113;SDS011;14648;49.730;8.614;2023-05-07T13:40:31;3.28;;;2.05;;
27113;SDS011;14648;49.730;8.614;2023-05-07T13:42:58;3.45;;;2.95;;
27113;SDS011;14648;49.730;8.614;2023-05-07T13:45:25;2.67;;;2.47;;
27113;SDS011;14648;49.730;8.614;2023-05-07T13:47:54;2.47;;;1.77;;
27113;SDS011;14648;49.730;8.614;2023-05-07T13:50:20;2.70;;;1.92;;
27113;SDS011;14648;49.730;8.614;2023-05-07T13:52:47;1.73;;;1.63;;
27113;SDS011;14648;49.730;8.614;2023-05-07T13:55:25;2.58;;;2.38;;
27113;SDS011;14648;49.730;8.614;2023-05-07T13:57:54;3.47;;;2.35;;
27113;SDS011;14648;49.730;8.614;2023-05-07T14:00:22;2.97;;;2.03;;
27113;SDS011;14648;49.730;8.614;2023-05-07T14:02:49;2.58;;;2.35;;
27113;SDS011;14648;49.730;8.614;2023-05-07T14:05:15;2.70;;;2.50;;
27113;SDS011;14648;49.730;8.614;2023-05-07T14:07:41;2.63;;;2.30;;
27113;SDS011;14648;49.730;8.614;2023-05-07T14:10:07;2.65;;;2.45;;
27113;SDS011;14648;49.730;8.614;2023-05-07T14:12:34;3.05;;;2.47;;
27113;SDS011;14648;49.730;8.614;2023-05-07T14:15:00;3.10;;;2.30;;
27113;SDS011;14648;49.730;8.614;2023-05-07T14:17:26;2.58;;;2.38;;
27113;SDS011;14648;49.730;8.614;2023-05-07T14:19:52;2.50;;;2.40;;
27113;SDS011;14648;49.730;8.614;2023-05-07T14:22:22;2.33;;;2.22;;
27113;SDS011;14648;49.730;8.614;2023-05-07T14:24:48;2.45;;;2.35;;
27113;SDS011;14648;49.730;8.614;2023-05-07T14:27:15;2.90;;;2.70;;
27113;SDS011;14648;49.730;8.614;2023-05-07T14:29:41;2.70;;;2.60;;
27113;SDS011;14648;49.730;8.614;2023-05-07T14:32:07;3.43;;;3.23;;
27113;SDS011;14648;49.730;8.614;2023-05-07T14:34:33;3.93;;;2.60;;
27113;SDS011;14648;49.730;8.614;2023-05-07T14:36:59;2.40;;;2.30;;
27113;SDS011;14648;49.730;8.614;2023-05-07T14:39:25;2.83;;;2.63;;
27113;SDS011;14648;49.730;8.614;2023-05-07T14:41:51;3.23;;;2.60;;
27113;SDS011;14648;49.730;8.614;2023-05-07T14:44:19;3.33;;;3.03;;
27113;SDS011;14648;49.730;8.614;2023-05-07T14:46:45;4.33;;;3.00;;
27113;SDS011;14648;49.730;8.614;2023-05-07T14:49:11;2.43;;;2.33;;
27113;SDS011;14648;49.730;8.614;2023-05-07T14:51:44;2.47;;;2.27;;
27113;SDS011;14648;49.730;8.614;2023-05-07T14:54:12;2.57;;;2.43;;
27113;SDS011;14648;49.730;8.614;2023-05-07T14:56:39;3.20;;;3.00;;
27113;SDS011;14648;49.730;8.614;2023-05-07T14:59:05;2.87;;;2.60;;
27113;SDS011;14648;49.730;8.614;2023-05-07T15:01:31;6.67;;;2.70;;
27113;SDS011;14648;49.730;8.614;2023-05-07T15:03:57;3.20;;;2.87;;
27113;SDS011;14648;49.730;8.614;2023-05-07T15:06:23;3.23;;;3.00;;
27113;SDS011;14648;49.730;8.614;2023-05-07T15:08:49;2.33;;;1.77;;